sensor_id;sensor_type;location;lat;lon;timestamp;P1;durP1;ratioP1;P2;durP2;ratioP2
1777;SDS011;886;50.082;8.222;2023-05-02T00:02:26;6.00;;;5.60;;
1777;SDS011;886;50.082;8.222;2023-05-02T00:04:54;6.30;;;5.80;;
1777;SDS011;886;50.082;8.222;2023-05-02T00:07:25;6.20;;;5.80;;
1777;SDS011;886;50.082;8.222;2023-05-02T00:09:53;6.07;;;5.57;;
1777;SDS011;886;50.082;8.222;2023-05-02T00:12:20;6.63;;;6.13;;
1777;SDS011;886;50.082;8.222;2023-05-02T00:14:49;7.07;;;6.47;;
1777;SDS011;886;50.082;8.222;2023-05-02T00:17:18;6.17;;;5.77;;
1777;SDS011;886;50.082;8.222;2023-05-02T00:19:46;5.70;;;5.30;;
1777;SDS011;886;50.082;8.222;2023-05-02T00:22:13;7.70;;;7.10;;
1777;SDS011;886;50.082;8.222;2023-05-02T00:24:40;8.17;;;7.50;;
1777;SDS011;886;50.082;8.222;2023-05-02T00:27:08;7.23;;;6.70;;
1777;SDS011;886;50.082;8.222;2023-05-02T00:29:36;7.93;;;7.23;;
1777;SDS011;886;50.082;8.222;2023-05-02T00:32:03;7.70;;;7.10;;
1777;SDS011;886;50.082;8.222;2023-05-02T00:34:33;7.07;;;6.40;;
1777;SDS011;886;50.082;8.222;2023-05-02T00:37:00;9.03;;;8.00;;
1777;SDS011;886;50.082;8.222;2023-05-02T00:39:27;7.33;;;6.73;;
1777;SDS011;886;50.082;8.222;2023-05-02T00:41:55;7.50;;;6.90;;
1777;SDS011;886;50.082;8.222;2023-05-02T00:44:26;8.07;;;7.40;;
1777;SDS011;886;50.082;8.222;2023-05-02T00:46:54;9.40;;;8.47;;
1777;SDS011;886;50.082;8.222;2023-05-02T00:49:22;8.97;;;8.27;;
1777;SDS011;886;50.082;8.222;2023-05-02T00:51:51;8.40;;;7.27;;
1777;SDS011;886;50.082;8.222;2023-05-02T00:54:18;9.03;;;8.23;;
1777;SDS011;886;50.082;8.222;2023-05-02T00:56:46;8.60;;;7.87;;
1777;SDS011;886;50.082;8.222;2023-05-02T00:59:13;9.60;;;8.50;;
1777;SDS011;886;50.082;8.222;2023-05-02T01:01:44;11.77;;;10.70;;
1777;SDS011;886;50.082;8.222;2023-05-02T01:04:22;11.40;;;10.30;;
1777;SDS011;886;50.082;8.222;2023-05-02T01:07:21;10.83;;;9.80;;
1777;SDS011;886;50.082;8.222;2023-05-02T01:10:07;14.23;;;11.33;;
1777;SDS011;886;50.082;8.222;2023-05-02T01:12:44;14.10;;;11.03;;
1777;SDS011;886;50.082;8.222;2023-05-02T01:15:20;12.27;;;11.07;;
1777;SDS011;886;50.082;8.222;2023-05-02T01:17:49;13.50;;;12.10;;
1777;SDS011;886;50.082;8.222;2023-05-02T01:20:19;12.30;;;11.07;;
1777;SDS011;886;50.082;8.222;2023-05-02T01:22:52;12.77;;;11.63;;
1777;SDS011;886;50.082;8.222;2023-05-02T01:25:28;14.40;;;12.90;;
1777;SDS011;886;50.082;8.222;2023-05-02T01:28:06;13.50;;;12.20;;
1777;SDS011;886;50.082;8.222;2023-05-02T01:31:01;14.00;;;12.60;;
1777;SDS011;886;50.082;8.222;2023-05-02T01:33:30;14.73;;;13.27;;
1777;SDS011;886;50.082;8.222;2023-05-02T01:36:01;14.03;;;12.70;;
1777;SDS011;886;50.082;8.222;2023-05-02T01:38:47;12.90;;;11.60;;
1777;SDS011;886;50.082;8.222;2023-05-02T01:41:16;12.13;;;11.03;;
1777;SDS011;886;50.082;8.222;2023-05-02T01:43:44;12.23;;;11.13;;
1777;SDS011;886;50.082;8.222;2023-05-02T01:46:15;13.70;;;12.40;;
1777;SDS011;886;50.082;8.222;2023-05-02T01:48:44;13.67;;;11.80;;
1777;SDS011;886;50.082;8.222;2023-05-02T01:51:15;13.27;;;12.13;;
1777;SDS011;886;50.082;8.222;2023-05-02T01:53:45;13.17;;;11.87;;
1777;SDS011;886;50.082;8.222;2023-05-02T01:56:14;13.83;;;12.30;;
1777;SDS011;886;50.082;8.222;2023-05-02T01:58:45;12.70;;;11.50;;
1777;SDS011;886;50.082;8.222;2023-05-02T02:01:20;14.13;;;12.73;;
1777;SDS011;886;50.082;8.222;2023-05-02T02:03:50;13.03;;;11.73;;
1777;SDS011;886;50.082;8.222;2023-05-02T02:06:19;12.80;;;11.70;;
1777;SDS011;886;50.082;8.222;2023-05-02T02:08:47;14.90;;;13.40;;
1777;SDS011;886;50.082;8.222;2023-05-02T02:11:15;16.00;;;14.47;;
1777;SDS011;886;50.082;8.222;2023-05-02T02:14:04;15.60;;;13.93;;
1777;SDS011;886;50.082;8.222;2023-05-02T02:16:37;20.23;;;16.57;;
1777;SDS011;886;50.082;8.222;2023-05-02T02:19:09;18.30;;;16.27;;
1777;SDS011;886;50.082;8.222;2023-05-02T02:21:38;18.00;;;16.20;;
1777;SDS011;886;50.082;8.222;2023-05-02T02:24:08;18.47;;;16.47;;
1777;SDS011;886;50.082;8.222;2023-05-02T02:26:37;19.57;;;16.50;;
1777;SDS011;886;50.082;8.222;2023-05-02T02:29:04;18.60;;;16.70;;
1777;SDS011;886;50.082;8.222;2023-05-02T02:31:32;17.73;;;15.77;;
1777;SDS011;886;50.082;8.222;2023-05-02T02:34:05;18.10;;;16.30;;
1777;SDS011;886;50.082;8.222;2023-05-02T02:36:41;18.97;;;17.07;;
1777;SDS011;886;50.082;8.222;2023-05-02T02:39:16;22.47;;;17.90;;
1777;SDS011;886;50.082;8.222;2023-05-02T02:41:54;19.37;;;17.30;;
1777;SDS011;886;50.082;8.222;2023-05-02T02:44:33;19.80;;;17.70;;
1777;SDS011;886;50.082;8.222;2023-05-02T02:47:13;21.53;;;19.23;;
1777;SDS011;886;50.082;8.222;2023-05-02T02:49:53;20.30;;;18.20;;
1777;SDS011;886;50.082;8.222;2023-05-02T02:52:51;20.97;;;18.80;;
1777;SDS011;886;50.082;8.222;2023-05-02T02:55:29;24.10;;;18.70;;
1777;SDS011;886;50.082;8.222;2023-05-02T02:58:06;23.37;;;20.10;;
1777;SDS011;886;50.082;8.222;2023-05-02T03:00:49;21.23;;;19.00;;
1777;SDS011;886;50.082;8.222;2023-05-02T03:03:19;24.60;;;20.40;;
1777;SDS011;886;50.082;8.222;2023-05-02T03:05:49;25.20;;;21.60;;
1777;SDS011;886;50.082;8.222;2023-05-02T03:08:17;26.60;;;21.93;;
1777;SDS011;886;50.082;8.222;2023-05-02T03:10:44;27.83;;;22.03;;
1777;SDS011;886;50.082;8.222;2023-05-02T03:13:12;25.17;;;21.50;;
1777;SDS011;886;50.082;8.222;2023-05-02T03:18:57;29.60;;;21.90;;
1777;SDS011;886;50.082;8.222;2023-05-02T03:21:26;28.20;;;23.33;;
1777;SDS011;886;50.082;8.222;2023-05-02T03:23:58;25.57;;;21.33;;
1777;SDS011;886;50.082;8.222;2023-05-02T03:26:26;29.10;;;21.30;;
1777;SDS011;886;50.082;8.222;2023-05-02T03:28:53;30.97;;;23.10;;
1777;SDS011;886;50.082;8.222;2023-05-02T03:31:27;25.33;;;22.57;;
1777;SDS011;886;50.082;8.222;2023-05-02T03:33:55;29.83;;;22.60;;
1777;SDS011;886;50.082;8.222;2023-05-02T03:36:22;26.87;;;22.50;;
1777;SDS011;886;50.082;8.222;2023-05-02T03:38:54;27.80;;;23.00;;
1777;SDS011;886;50.082;8.222;2023-05-02T03:41:21;28.20;;;21.80;;
1777;SDS011;886;50.082;8.222;2023-05-02T03:43:50;24.53;;;20.43;;
1777;SDS011;886;50.082;8.222;2023-05-02T03:46:17;24.77;;;22.13;;
1777;SDS011;886;50.082;8.222;2023-05-02T03:48:46;29.00;;;22.57;;
1777;SDS011;886;50.082;8.222;2023-05-02T03:51:13;25.57;;;22.80;;
1777;SDS011;886;50.082;8.222;2023-05-02T03:53:42;26.23;;;22.17;;
1777;SDS011;886;50.082;8.222;2023-05-02T03:56:09;28.40;;;21.80;;
1777;SDS011;886;50.082;8.222;2023-05-02T03:58:37;24.83;;;21.67;;
1777;SDS011;886;50.082;8.222;2023-05-02T04:01:09;26.30;;;21.53;;
1777;SDS011;886;50.082;8.222;2023-05-02T04:03:40;31.87;;;23.40;;
1777;SDS011;886;50.082;8.222;2023-05-02T04:06:08;29.80;;;24.30;;
1777;SDS011;886;50.082;8.222;2023-05-02T04:08:43;33.90;;;23.63;;
1777;SDS011;886;50.082;8.222;2023-05-02T04:11:13;27.03;;;23.70;;
1777;SDS011;886;50.082;8.222;2023-05-02T04:13:41;28.33;;;23.20;;
1777;SDS011;886;50.082;8.222;2023-05-02T04:16:08;28.77;;;24.50;;
1777;SDS011;886;50.082;8.222;2023-05-02T04:18:41;30.50;;;24.70;;
1777;SDS011;886;50.082;8.222;2023-05-02T04:21:08;30.13;;;23.50;;
1777;SDS011;886;50.082;8.222;2023-05-02T04:23:36;28.73;;;22.90;;
1777;SDS011;886;50.082;8.222;2023-05-02T04:26:04;32.80;;;25.47;;
1777;SDS011;886;50.082;8.222;2023-05-02T04:28:32;34.70;;;26.33;;
1777;SDS011;886;50.082;8.222;2023-05-02T04:31:00;32.70;;;25.23;;
1777;SDS011;886;50.082;8.222;2023-05-02T04:33:29;33.67;;;26.57;;
1777;SDS011;886;50.082;8.222;2023-05-02T04:35:56;36.50;;;27.50;;
1777;SDS011;886;50.082;8.222;2023-05-02T04:38:24;33.60;;;26.87;;
1777;SDS011;886;50.082;8.222;2023-05-02T04:40:53;41.87;;;29.70;;
1777;SDS011;886;50.082;8.222;2023-05-02T04:43:27;43.07;;;28.37;;
1777;SDS011;886;50.082;8.222;2023-05-02T04:45:54;38.40;;;28.70;;
1777;SDS011;886;50.082;8.222;2023-05-02T04:48:22;38.10;;;27.40;;
1777;SDS011;886;50.082;8.222;2023-05-02T04:50:49;40.17;;;28.27;;
1777;SDS011;886;50.082;8.222;2023-05-02T04:53:19;32.33;;;25.13;;
1777;SDS011;886;50.082;8.222;2023-05-02T04:55:51;37.30;;;27.87;;
1777;SDS011;886;50.082;8.222;2023-05-02T04:58:21;38.13;;;28.83;;
1777;SDS011;886;50.082;8.222;2023-05-02T05:00:50;39.07;;;27.63;;
1777;SDS011;886;50.082;8.222;2023-05-02T05:03:17;40.17;;;28.20;;
1777;SDS011;886;50.082;8.222;2023-05-02T05:05:44;43.27;;;28.97;;
1777;SDS011;886;50.082;8.222;2023-05-02T05:08:12;41.03;;;28.87;;
1777;SDS011;886;50.082;8.222;2023-05-02T05:10:56;43.43;;;29.23;;
1777;SDS011;886;50.082;8.222;2023-05-02T05:13:25;42.90;;;28.80;;
1777;SDS011;886;50.082;8.222;2023-05-02T05:16:11;40.57;;;28.73;;
1777;SDS011;886;50.082;8.222;2023-05-02T05:18:38;43.20;;;29.90;;
1777;SDS011;886;50.082;8.222;2023-05-02T05:21:06;40.50;;;28.03;;
1777;SDS011;886;50.082;8.222;2023-05-02T05:23:33;43.90;;;30.10;;
1777;SDS011;886;50.082;8.222;2023-05-02T05:26:10;40.37;;;27.27;;
1777;SDS011;886;50.082;8.222;2023-05-02T05:28:38;39.90;;;28.13;;
1777;SDS011;886;50.082;8.222;2023-05-02T05:31:06;38.10;;;29.23;;
1777;SDS011;886;50.082;8.222;2023-05-02T05:33:36;49.60;;;29.90;;
1777;SDS011;886;50.082;8.222;2023-05-02T05:36:04;40.20;;;28.13;;
1777;SDS011;886;50.082;8.222;2023-05-02T05:38:35;43.33;;;29.73;;
1777;SDS011;886;50.082;8.222;2023-05-02T05:41:06;43.43;;;30.27;;
1777;SDS011;886;50.082;8.222;2023-05-02T05:43:34;40.30;;;29.13;;
1777;SDS011;886;50.082;8.222;2023-05-02T05:46:03;42.83;;;28.17;;
1777;SDS011;886;50.082;8.222;2023-05-02T05:48:31;42.43;;;29.40;;
1777;SDS011;886;50.082;8.222;2023-05-02T05:51:03;41.97;;;30.30;;
1777;SDS011;886;50.082;8.222;2023-05-02T05:53:31;42.90;;;28.67;;
1777;SDS011;886;50.082;8.222;2023-05-02T05:56:06;44.13;;;30.00;;
1777;SDS011;886;50.082;8.222;2023-05-02T05:58:35;41.23;;;27.60;;
1777;SDS011;886;50.082;8.222;2023-05-02T06:01:06;40.63;;;28.53;;
1777;SDS011;886;50.082;8.222;2023-05-02T06:03:33;44.57;;;29.80;;
1777;SDS011;886;50.082;8.222;2023-05-02T06:06:10;46.73;;;31.23;;
1777;SDS011;886;50.082;8.222;2023-05-02T06:08:38;43.23;;;28.33;;
1777;SDS011;886;50.082;8.222;2023-05-02T06:11:07;43.77;;;29.87;;
1777;SDS011;886;50.082;8.222;2023-05-02T06:13:36;43.53;;;28.70;;
1777;SDS011;886;50.082;8.222;2023-05-02T06:16:04;39.70;;;27.40;;
1777;SDS011;886;50.082;8.222;2023-05-02T06:18:32;41.03;;;28.17;;
1777;SDS011;886;50.082;8.222;2023-05-02T06:21:03;42.33;;;27.00;;
1777;SDS011;886;50.082;8.222;2023-05-02T06:23:32;39.63;;;25.73;;
1777;SDS011;886;50.082;8.222;2023-05-02T06:26:00;37.73;;;25.20;;
1777;SDS011;886;50.082;8.222;2023-05-02T06:28:28;40.07;;;26.03;;
1777;SDS011;886;50.082;8.222;2023-05-02T06:30:56;34.63;;;23.83;;
1777;SDS011;886;50.082;8.222;2023-05-02T06:33:24;35.07;;;24.80;;
1777;SDS011;886;50.082;8.222;2023-05-02T06:35:51;34.77;;;23.20;;
1777;SDS011;886;50.082;8.222;2023-05-02T06:38:20;38.47;;;23.83;;
1777;SDS011;886;50.082;8.222;2023-05-02T06:40:48;36.37;;;24.70;;
1777;SDS011;886;50.082;8.222;2023-05-02T06:43:17;35.80;;;26.67;;
1777;SDS011;886;50.082;8.222;2023-05-02T06:45:44;38.83;;;23.00;;
1777;SDS011;886;50.082;8.222;2023-05-02T06:48:12;32.00;;;22.80;;
1777;SDS011;886;50.082;8.222;2023-05-02T06:50:41;33.90;;;22.70;;
1777;SDS011;886;50.082;8.222;2023-05-02T06:53:08;40.27;;;24.13;;
1777;SDS011;886;50.082;8.222;2023-05-02T06:55:37;35.03;;;23.37;;
1777;SDS011;886;50.082;8.222;2023-05-02T06:58:04;37.47;;;24.70;;
1777;SDS011;886;50.082;8.222;2023-05-02T07:00:31;31.37;;;21.73;;
1777;SDS011;886;50.082;8.222;2023-05-02T07:02:59;36.20;;;23.23;;
1777;SDS011;886;50.082;8.222;2023-05-02T07:05:27;28.23;;;20.10;;
1777;SDS011;886;50.082;8.222;2023-05-02T07:07:56;32.57;;;18.87;;
1777;SDS011;886;50.082;8.222;2023-05-02T07:10:23;29.27;;;20.07;;
1777;SDS011;886;50.082;8.222;2023-05-02T07:12:52;28.47;;;19.83;;
1777;SDS011;886;50.082;8.222;2023-05-02T07:15:19;28.83;;;19.53;;
1777;SDS011;886;50.082;8.222;2023-05-02T07:17:46;29.33;;;20.30;;
1777;SDS011;886;50.082;8.222;2023-05-02T07:20:14;30.13;;;19.40;;
1777;SDS011;886;50.082;8.222;2023-05-02T07:22:42;33.30;;;20.80;;
1777;SDS011;886;50.082;8.222;2023-05-02T07:25:09;29.87;;;18.70;;
1777;SDS011;886;50.082;8.222;2023-05-02T07:27:36;26.80;;;17.97;;
1777;SDS011;886;50.082;8.222;2023-05-02T07:30:06;33.63;;;21.73;;
1777;SDS011;886;50.082;8.222;2023-05-02T07:32:34;29.73;;;19.83;;
1777;SDS011;886;50.082;8.222;2023-05-02T07:35:02;29.80;;;20.83;;
1777;SDS011;886;50.082;8.222;2023-05-02T07:37:31;32.83;;;21.30;;
1777;SDS011;886;50.082;8.222;2023-05-02T07:40:00;24.30;;;15.67;;
1777;SDS011;886;50.082;8.222;2023-05-02T07:42:29;28.80;;;17.40;;
1777;SDS011;886;50.082;8.222;2023-05-02T07:44:56;25.10;;;16.43;;
1777;SDS011;886;50.082;8.222;2023-05-02T07:47:26;24.80;;;15.10;;
1777;SDS011;886;50.082;8.222;2023-05-02T07:49:53;18.10;;;13.40;;
1777;SDS011;886;50.082;8.222;2023-05-02T07:52:21;17.30;;;12.70;;
1777;SDS011;886;50.082;8.222;2023-05-02T07:54:49;17.07;;;11.77;;
1777;SDS011;886;50.082;8.222;2023-05-02T07:57:17;19.73;;;12.87;;
1777;SDS011;886;50.082;8.222;2023-05-02T07:59:44;18.87;;;11.80;;
1777;SDS011;886;50.082;8.222;2023-05-02T08:02:17;15.63;;;10.17;;
1777;SDS011;886;50.082;8.222;2023-05-02T08:04:47;18.57;;;10.33;;
1777;SDS011;886;50.082;8.222;2023-05-02T08:07:15;18.37;;;10.90;;
1777;SDS011;886;50.082;8.222;2023-05-02T08:09:42;16.27;;;10.93;;
1777;SDS011;886;50.082;8.222;2023-05-02T08:12:10;16.23;;;10.70;;
1777;SDS011;886;50.082;8.222;2023-05-02T08:14:37;19.37;;;10.83;;
1777;SDS011;886;50.082;8.222;2023-05-02T08:17:04;15.00;;;9.23;;
1777;SDS011;886;50.082;8.222;2023-05-02T08:19:32;23.03;;;10.33;;
1777;SDS011;886;50.082;8.222;2023-05-02T08:22:00;14.17;;;9.30;;
1777;SDS011;886;50.082;8.222;2023-05-02T08:24:28;14.03;;;9.73;;
1777;SDS011;886;50.082;8.222;2023-05-02T08:26:56;19.73;;;11.33;;
1777;SDS011;886;50.082;8.222;2023-05-02T08:29:25;19.40;;;11.77;;
1777;SDS011;886;50.082;8.222;2023-05-02T08:31:54;18.53;;;11.87;;
1777;SDS011;886;50.082;8.222;2023-05-02T08:34:22;15.70;;;11.10;;
1777;SDS011;886;50.082;8.222;2023-05-02T08:36:54;15.67;;;11.60;;
1777;SDS011;886;50.082;8.222;2023-05-02T08:39:25;20.60;;;11.90;;
1777;SDS011;886;50.082;8.222;2023-05-02T08:41:53;21.47;;;12.13;;
1777;SDS011;886;50.082;8.222;2023-05-02T08:44:21;18.20;;;11.23;;
1777;SDS011;886;50.082;8.222;2023-05-02T08:46:48;19.10;;;11.37;;
1777;SDS011;886;50.082;8.222;2023-05-02T08:49:17;17.90;;;11.40;;
1777;SDS011;886;50.082;8.222;2023-05-02T08:51:50;21.17;;;12.40;;
1777;SDS011;886;50.082;8.222;2023-05-02T08:54:21;19.10;;;12.90;;
1777;SDS011;886;50.082;8.222;2023-05-02T08:56:53;13.83;;;8.13;;
1777;SDS011;886;50.082;8.222;2023-05-02T08:59:24;9.67;;;6.77;;
1777;SDS011;886;50.082;8.222;2023-05-02T09:01:54;11.73;;;8.07;;
1777;SDS011;886;50.082;8.222;2023-05-02T09:04:28;14.80;;;9.40;;
1777;SDS011;886;50.082;8.222;2023-05-02T09:07:00;10.90;;;8.13;;
1777;SDS011;886;50.082;8.222;2023-05-02T09:09:32;11.87;;;8.67;;
1777;SDS011;886;50.082;8.222;2023-05-02T09:12:00;12.70;;;8.70;;
1777;SDS011;886;50.082;8.222;2023-05-02T09:14:27;11.40;;;8.50;;
1777;SDS011;886;50.082;8.222;2023-05-02T09:16:57;11.50;;;8.00;;
1777;SDS011;886;50.082;8.222;2023-05-02T09:19:33;9.73;;;6.53;;
1777;SDS011;886;50.082;8.222;2023-05-02T09:22:00;14.07;;;9.03;;
1777;SDS011;886;50.082;8.222;2023-05-02T09:24:28;11.73;;;7.40;;
1777;SDS011;886;50.082;8.222;2023-05-02T09:26:57;10.07;;;7.90;;
1777;SDS011;886;50.082;8.222;2023-05-02T09:29:29;9.93;;;7.80;;
1777;SDS011;886;50.082;8.222;2023-05-02T09:32:01;9.33;;;7.10;;
1777;SDS011;886;50.082;8.222;2023-05-02T09:34:29;10.00;;;7.90;;
1777;SDS011;886;50.082;8.222;2023-05-02T09:36:57;13.70;;;7.80;;
1777;SDS011;886;50.082;8.222;2023-05-02T09:39:24;11.60;;;7.63;;
1777;SDS011;886;50.082;8.222;2023-05-02T09:42:00;10.07;;;7.27;;
1777;SDS011;886;50.082;8.222;2023-05-02T09:44:35;21.53;;;9.40;;
1777;SDS011;886;50.082;8.222;2023-05-02T09:47:03;11.40;;;7.53;;
1777;SDS011;886;50.082;8.222;2023-05-02T09:52:18;12.00;;;8.30;;
1777;SDS011;886;50.082;8.222;2023-05-02T09:54:48;12.10;;;8.53;;
1777;SDS011;886;50.082;8.222;2023-05-02T09:57:19;12.60;;;8.50;;
1777;SDS011;886;50.082;8.222;2023-05-02T09:59:53;12.10;;;7.73;;
1777;SDS011;886;50.082;8.222;2023-05-02T10:02:23;12.07;;;8.10;;
1777;SDS011;886;50.082;8.222;2023-05-02T10:04:53;10.97;;;7.60;;
1777;SDS011;886;50.082;8.222;2023-05-02T10:07:27;11.20;;;8.40;;
1777;SDS011;886;50.082;8.222;2023-05-02T10:09:55;11.57;;;8.33;;
1777;SDS011;886;50.082;8.222;2023-05-02T10:12:30;12.33;;;7.57;;
1777;SDS011;886;50.082;8.222;2023-05-02T10:15:02;8.10;;;6.77;;
1777;SDS011;886;50.082;8.222;2023-05-02T10:17:34;11.37;;;8.23;;
1777;SDS011;886;50.082;8.222;2023-05-02T10:20:09;9.07;;;7.30;;
1777;SDS011;886;50.082;8.222;2023-05-02T10:22:42;8.63;;;7.20;;
1777;SDS011;886;50.082;8.222;2023-05-02T10:25:13;9.30;;;7.40;;
1777;SDS011;886;50.082;8.222;2023-05-02T10:27:42;9.10;;;7.43;;
1777;SDS011;886;50.082;8.222;2023-05-02T10:30:09;7.90;;;7.00;;
1777;SDS011;886;50.082;8.222;2023-05-02T10:32:46;10.33;;;7.23;;
1777;SDS011;886;50.082;8.222;2023-05-02T10:35:15;8.33;;;6.83;;
1777;SDS011;886;50.082;8.222;2023-05-02T10:37:48;8.23;;;7.30;;
1777;SDS011;886;50.082;8.222;2023-05-02T10:40:16;10.50;;;6.93;;
1777;SDS011;886;50.082;8.222;2023-05-02T10:42:46;9.00;;;7.67;;
1777;SDS011;886;50.082;8.222;2023-05-02T10:45:30;8.37;;;6.63;;
1777;SDS011;886;50.082;8.222;2023-05-02T10:48:13;12.87;;;7.83;;
1777;SDS011;886;50.082;8.222;2023-05-02T10:50:43;9.40;;;8.20;;
1777;SDS011;886;50.082;8.222;2023-05-02T10:53:22;8.50;;;7.50;;
1777;SDS011;886;50.082;8.222;2023-05-02T10:56:16;10.97;;;7.43;;
1777;SDS011;886;50.082;8.222;2023-05-02T10:58:48;8.83;;;6.87;;
1777;SDS011;886;50.082;8.222;2023-05-02T11:01:33;8.17;;;7.30;;
1777;SDS011;886;50.082;8.222;2023-05-02T11:04:03;10.67;;;7.00;;
1777;SDS011;886;50.082;8.222;2023-05-02T11:06:33;9.60;;;7.20;;
1777;SDS011;886;50.082;8.222;2023-05-02T11:11:59;7.77;;;6.03;;
1777;SDS011;886;50.082;8.222;2023-05-02T11:14:49;13.23;;;6.60;;
1777;SDS011;886;50.082;8.222;2023-05-02T11:17:17;11.23;;;8.33;;
1777;SDS011;886;50.082;8.222;2023-05-02T11:22:50;8.60;;;6.87;;
1777;SDS011;886;50.082;8.222;2023-05-02T11:25:37;10.10;;;7.00;;
1777;SDS011;886;50.082;8.222;2023-05-02T11:28:07;7.33;;;6.60;;
1777;SDS011;886;50.082;8.222;2023-05-02T11:31:51;4.90;;;4.40;;
1777;SDS011;886;50.082;8.222;2023-05-02T11:34:24;6.30;;;3.30;;
1777;SDS011;886;50.082;8.222;2023-05-02T11:36:55;5.60;;;3.50;;
1777;SDS011;886;50.082;8.222;2023-05-02T11:39:25;4.10;;;3.70;;
1777;SDS011;886;50.082;8.222;2023-05-02T11:41:52;5.67;;;3.60;;
1777;SDS011;886;50.082;8.222;2023-05-02T11:44:21;3.97;;;3.67;;
1777;SDS011;886;50.082;8.222;2023-05-02T11:46:49;4.00;;;3.70;;
1777;SDS011;886;50.082;8.222;2023-05-02T11:49:17;6.77;;;4.10;;
1777;SDS011;886;50.082;8.222;2023-05-02T11:51:47;3.83;;;3.53;;
1777;SDS011;886;50.082;8.222;2023-05-02T11:54:18;3.90;;;3.60;;
1777;SDS011;886;50.082;8.222;2023-05-02T11:56:48;3.70;;;3.40;;
1777;SDS011;886;50.082;8.222;2023-05-02T11:59:15;5.40;;;2.53;;
1777;SDS011;886;50.082;8.222;2023-05-02T12:01:46;2.67;;;2.47;;
1777;SDS011;886;50.082;8.222;2023-05-02T12:04:33;3.00;;;2.70;;
1777;SDS011;886;50.082;8.222;2023-05-02T12:07:08;4.17;;;2.90;;
1777;SDS011;886;50.082;8.222;2023-05-02T12:09:48;4.00;;;2.80;;
1777;SDS011;886;50.082;8.222;2023-05-02T12:12:20;3.10;;;2.90;;
1777;SDS011;886;50.082;8.222;2023-05-02T12:14:47;3.03;;;2.77;;
1777;SDS011;886;50.082;8.222;2023-05-02T12:17:23;3.80;;;3.50;;
1777;SDS011;886;50.082;8.222;2023-05-02T12:19:52;3.20;;;2.80;;
1777;SDS011;886;50.082;8.222;2023-05-02T12:22:30;3.30;;;3.00;;
1777;SDS011;886;50.082;8.222;2023-05-02T12:24:57;3.73;;;2.90;;
1777;SDS011;886;50.082;8.222;2023-05-02T12:27:26;3.83;;;2.93;;
1777;SDS011;886;50.082;8.222;2023-05-02T12:29:56;3.27;;;3.00;;
1777;SDS011;886;50.082;8.222;2023-05-02T12:32:27;3.57;;;3.27;;
1777;SDS011;886;50.082;8.222;2023-05-02T12:34:58;4.30;;;3.90;;
1777;SDS011;886;50.082;8.222;2023-05-02T12:37:29;4.20;;;3.80;;
1777;SDS011;886;50.082;8.222;2023-05-02T12:39:57;3.77;;;3.47;;
1777;SDS011;886;50.082;8.222;2023-05-02T12:42:25;3.20;;;3.00;;
1777;SDS011;886;50.082;8.222;2023-05-02T12:44:52;4.33;;;3.50;;
1777;SDS011;886;50.082;8.222;2023-05-02T12:47:28;6.93;;;4.40;;
1777;SDS011;886;50.082;8.222;2023-05-02T12:49:56;4.07;;;3.77;;
1777;SDS011;886;50.082;8.222;2023-05-02T12:52:47;4.80;;;4.03;;
1777;SDS011;886;50.082;8.222;2023-05-02T12:55:16;4.30;;;3.77;;
1777;SDS011;886;50.082;8.222;2023-05-02T12:57:44;4.80;;;4.33;;
1777;SDS011;886;50.082;8.222;2023-05-02T13:00:12;6.53;;;4.80;;
1777;SDS011;886;50.082;8.222;2023-05-02T13:02:42;5.70;;;5.20;;
1777;SDS011;886;50.082;8.222;2023-05-02T13:05:15;6.03;;;5.57;;
1777;SDS011;886;50.082;8.222;2023-05-02T13:07:42;6.80;;;6.20;;
1777;SDS011;886;50.082;8.222;2023-05-02T13:10:10;7.30;;;6.23;;
1777;SDS011;886;50.082;8.222;2023-05-02T13:12:38;6.93;;;5.60;;
1777;SDS011;886;50.082;8.222;2023-05-02T13:15:07;6.07;;;5.57;;
1777;SDS011;886;50.082;8.222;2023-05-02T13:17:35;7.10;;;5.83;;
1777;SDS011;886;50.082;8.222;2023-05-02T13:20:02;8.37;;;6.10;;
1777;SDS011;886;50.082;8.222;2023-05-02T13:22:36;7.77;;;6.97;;
1777;SDS011;886;50.082;8.222;2023-05-02T13:25:06;6.90;;;6.30;;
1777;SDS011;886;50.082;8.222;2023-05-02T13:27:38;9.67;;;7.40;;
1777;SDS011;886;50.082;8.222;2023-05-02T13:30:10;6.90;;;6.20;;
1777;SDS011;886;50.082;8.222;2023-05-02T13:32:40;7.50;;;6.43;;
1777;SDS011;886;50.082;8.222;2023-05-02T13:35:10;7.03;;;5.67;;
1777;SDS011;886;50.082;8.222;2023-05-02T13:37:44;5.93;;;5.43;;
1777;SDS011;886;50.082;8.222;2023-05-02T13:40:12;5.73;;;5.23;;
1777;SDS011;886;50.082;8.222;2023-05-02T13:42:41;5.03;;;4.50;;
1777;SDS011;886;50.082;8.222;2023-05-02T13:45:11;6.17;;;5.57;;
1777;SDS011;886;50.082;8.222;2023-05-02T13:47:40;5.10;;;4.50;;
1777;SDS011;886;50.082;8.222;2023-05-02T13:50:08;5.67;;;5.17;;
1777;SDS011;886;50.082;8.222;2023-05-02T13:52:40;5.70;;;5.17;;
1777;SDS011;886;50.082;8.222;2023-05-02T13:55:09;6.60;;;6.00;;
1777;SDS011;886;50.082;8.222;2023-05-02T13:57:36;6.27;;;4.90;;
1777;SDS011;886;50.082;8.222;2023-05-02T14:00:04;6.73;;;5.50;;
1777;SDS011;886;50.082;8.222;2023-05-02T14:02:35;6.03;;;5.53;;
1777;SDS011;886;50.082;8.222;2023-05-02T14:05:02;5.20;;;4.80;;
1777;SDS011;886;50.082;8.222;2023-05-02T14:07:30;6.47;;;5.77;;
1777;SDS011;886;50.082;8.222;2023-05-02T14:10:17;5.00;;;4.50;;
1777;SDS011;886;50.082;8.222;2023-05-02T14:12:44;7.20;;;6.37;;
1777;SDS011;886;50.082;8.222;2023-05-02T14:15:12;7.33;;;6.67;;
1777;SDS011;886;50.082;8.222;2023-05-02T14:17:39;6.50;;;5.90;;
1777;SDS011;886;50.082;8.222;2023-05-02T14:20:07;6.50;;;4.87;;
1777;SDS011;886;50.082;8.222;2023-05-02T14:22:35;6.57;;;4.80;;
1777;SDS011;886;50.082;8.222;2023-05-02T14:25:03;5.60;;;5.10;;
1777;SDS011;886;50.082;8.222;2023-05-02T14:27:36;6.67;;;5.50;;
1777;SDS011;886;50.082;8.222;2023-05-02T14:30:04;7.23;;;6.57;;
1777;SDS011;886;50.082;8.222;2023-05-02T14:32:33;6.27;;;5.50;;
1777;SDS011;886;50.082;8.222;2023-05-02T14:35:01;8.00;;;6.40;;
1777;SDS011;886;50.082;8.222;2023-05-02T14:37:28;6.80;;;6.30;;
1777;SDS011;886;50.082;8.222;2023-05-02T14:39:55;5.87;;;5.47;;
1777;SDS011;886;50.082;8.222;2023-05-02T14:42:25;5.30;;;4.90;;
1777;SDS011;886;50.082;8.222;2023-05-02T14:44:53;6.77;;;5.87;;
1777;SDS011;886;50.082;8.222;2023-05-02T14:47:26;6.70;;;6.00;;
1777;SDS011;886;50.082;8.222;2023-05-02T14:49:55;5.53;;;5.13;;
1777;SDS011;886;50.082;8.222;2023-05-02T14:52:23;7.53;;;6.90;;
1777;SDS011;886;50.082;8.222;2023-05-02T14:54:50;6.70;;;6.10;;
1777;SDS011;886;50.082;8.222;2023-05-02T14:57:18;6.53;;;5.43;;
1777;SDS011;886;50.082;8.222;2023-05-02T14:59:46;6.23;;;5.73;;
1777;SDS011;886;50.082;8.222;2023-05-02T15:02:14;5.53;;;5.03;;
1777;SDS011;886;50.082;8.222;2023-05-02T15:04:41;6.03;;;5.53;;
1777;SDS011;886;50.082;8.222;2023-05-02T15:07:09;5.97;;;5.47;;
1777;SDS011;886;50.082;8.222;2023-05-02T15:09:36;5.23;;;4.93;;
1777;SDS011;886;50.082;8.222;2023-05-02T15:12:03;4.80;;;4.33;;
1777;SDS011;886;50.082;8.222;2023-05-02T15:14:31;4.00;;;3.70;;
1777;SDS011;886;50.082;8.222;2023-05-02T15:16:59;4.83;;;4.43;;
1777;SDS011;886;50.082;8.222;2023-05-02T15:19:27;3.97;;;3.47;;
1777;SDS011;886;50.082;8.222;2023-05-02T15:21:54;4.63;;;3.37;;
1777;SDS011;886;50.082;8.222;2023-05-02T15:24:25;4.03;;;3.63;;
1777;SDS011;886;50.082;8.222;2023-05-02T15:26:53;4.13;;;3.83;;
1777;SDS011;886;50.082;8.222;2023-05-02T15:29:21;3.50;;;3.20;;
1777;SDS011;886;50.082;8.222;2023-05-02T15:31:48;3.13;;;2.93;;
1777;SDS011;886;50.082;8.222;2023-05-02T15:34:15;5.83;;;3.23;;
1777;SDS011;886;50.082;8.222;2023-05-02T15:36:44;4.40;;;4.00;;
1777;SDS011;886;50.082;8.222;2023-05-02T15:39:11;9.10;;;4.47;;
1777;SDS011;886;50.082;8.222;2023-05-02T15:41:38;6.43;;;4.53;;
1777;SDS011;886;50.082;8.222;2023-05-02T15:44:07;4.00;;;3.80;;
1777;SDS011;886;50.082;8.222;2023-05-02T15:46:34;4.63;;;4.20;;
1777;SDS011;886;50.082;8.222;2023-05-02T15:49:01;6.63;;;3.63;;